Time;durP1;ratioP1;P1;durP2;ratioP2;P2;SDS_P1;SDS_P2;PMS_P1;PMS_P2;Temp;Humidity;BMP_temperature;BMP_pressure;BME280_temperature;BME280_humidity;BME280_pressure;Samples;Min_cycle;Max_cycle;Signal;HPM_P1;HPM_P2
2024/03/04 00:01:01;;;;;;;14.07;8.97;;;;;;;6.03;67.37;99889.38;5068794;28;20198;-65
2024/03/04 00:03:29;;;;;;;13.43;8.53;;;;;;;6.02;67.46;99893.66;5070550;28;20215;-65
2024/03/04 00:05:57;;;;;;;14.23;8.73;;;;;;;6.00;67.58;99879.13;5062918;28;20198;-63
2024/03/04 00:08:25;;;;;;;14.33;8.77;;;;;;;5.98;67.05;99883.41;5053531;28;20209;-65
2024/03/04 00:10:53;;;;;;;13.80;8.30;;;;;;;5.93;67.30;99882.50;5067250;28;20198;-64
2024/03/04 00:13:23;;;;;;;13.27;8.27;;;;;;;5.87;67.67;99893.56;5070277;28;20731;-62
2024/03/04 00:15:52;;;;;;;12.10;8.23;;;;;;;5.82;66.93;99885.88;5065574;28;20212;-62
2024/03/04 00:18:21;;;;;;;15.57;9.20;;;;;;;5.77;67.35;99882.41;5070001;28;20201;-63
2024/03/04 00:20:49;;;;;;;15.33;9.50;;;;;;;5.77;67.34;99881.56;5064871;28;20213;-62
2024/03/04 00:23:17;;;;;;;15.20;9.70;;;;;;;5.77;67.64;99881.56;5070425;28;20201;-64
2024/03/04 00:25:46;;;;;;;17.57;9.93;;;;;;;5.76;67.82;99873.03;5070479;28;20239;-64
2024/03/04 00:28:14;;;;;;;17.93;10.10;;;;;;;5.72;67.48;99873.88;5061614;28;20256;-69
2024/03/04 00:30:44;;;;;;;17.53;9.67;;;;;;;5.69;68.01;99871.28;5066350;28;20275;-65
2024/03/04 00:33:13;;;;;;;17.87;9.10;;;;;;;5.63;67.48;99868.69;5070313;28;20209;-63
2024/03/04 00:35:43;;;;;;;16.50;9.30;;;;;;;5.54;67.99;99871.22;5063262;28;20288;-63
2024/03/04 00:38:11;;;;;;;16.10;9.90;;;;;;;5.54;68.50;99871.22;5069134;28;20611;-62
2024/03/04 00:40:39;;;;;;;17.63;10.20;;;;;;;5.51;67.73;99866.06;5070308;28;20245;-66
2024/03/04 00:43:07;;;;;;;19.40;9.83;;;;;;;5.48;68.76;99855.84;5066273;28;20233;-63
2024/03/04 00:45:35;;;;;;;13.43;9.20;;;;;;;5.47;68.75;99857.53;5062792;28;20292;-63
2024/03/04 00:48:06;;;;;;;17.13;10.00;;;;;;;5.45;68.84;99850.69;5072940;28;20220;-64
2024/03/04 00:50:34;;;;;;;16.50;10.23;;;;;;;5.48;68.83;99858.38;5068704;28;20201;-62
2024/03/04 00:53:04;;;;;;;19.10;9.67;;;;;;;5.45;68.71;99853.25;5064107;28;20267;-63
2024/03/04 00:55:32;;;;;;;20.10;10.20;;;;;;;5.42;69.11;99858.38;5068064;28;20727;-64
2024/03/04 00:58:00;;;;;;;17.47;10.60;;;;;;;5.40;69.09;99849.84;5070265;28;20536;-63
2024/03/04 01:00:28;;;;;;;13.50;9.87;;;;;;;5.39;69.04;99848.13;5068733;28;20201;-62
2024/03/04 01:02:56;;;;;;;16.53;9.77;;;;;;;5.36;68.95;99858.31;5068343;28;20660;-63
2024/03/04 01:05:26;;;;;;;14.40;9.40;;;;;;;5.34;69.61;99858.31;5069541;28;20225;-64
2024/03/04 01:07:54;;;;;;;14.67;9.37;;;;;;;5.32;69.35;99857.44;5069960;28;20250;-62
2024/03/04 01:10:22;;;;;;;16.77;9.70;;;;;;;5.29;69.39;99865.94;5069391;28;20197;-63
2024/03/04 01:12:50;;;;;;;16.63;9.10;;;;;;;5.27;69.59;99854.88;5066068;28;20287;-63
2024/03/04 01:15:18;;;;;;;14.93;9.97;;;;;;;5.25;69.78;99856.53;5072499;28;20201;-62
2024/03/04 01:17:46;;;;;;;16.27;9.93;;;;;;;5.22;70.00;99853.97;5070932;28;20270;-62
2024/03/04 01:20:14;;;;;;;15.77;10.20;;;;;;;5.23;69.84;99850.59;5072023;28;20225;-63
2024/03/04 01:22:43;;;;;;;15.97;9.83;;;;;;;5.24;69.62;99854.84;5068802;28;20219;-63
2024/03/04 01:25:12;;;;;;;17.67;9.70;;;;;;;5.23;69.37;99852.28;5072929;28;20740;-63
2024/03/04 01:27:41;;;;;;;13.97;9.33;;;;;;;5.21;69.51;99844.59;5073339;28;20236;-67
2024/03/04 01:30:13;;;;;;;15.23;10.37;;;;;;;5.14;69.92;99847.94;5072597;28;20205;-63
2024/03/04 01:32:42;;;;;;;17.17;10.70;;;;;;;5.09;70.22;99850.47;5073111;28;20217;-64
2024/03/04 01:35:12;;;;;;;18.43;10.13;;;;;;;5.07;69.90;99853.84;5070317;28;20202;-62
2024/03/04 01:37:40;;;;;;;13.67;8.57;;;;;;;5.06;69.78;99847.06;5070767;28;20274;-63
2024/03/04 01:40:13;;;;;;;15.60;9.57;;;;;;;5.08;70.41;99846.22;5073497;28;20517;-64
2024/03/04 01:42:43;;;;;;;14.63;10.20;;;;;;;5.09;69.92;99855.59;5065178;28;20226;-63
2024/03/04 01:45:23;;;;;;;13.77;8.77;;;;;;;5.12;69.96;99854.75;5072966;28;20197;-62
2024/03/04 01:47:53;;;;;;;17.37;9.37;;;;;;;5.08;70.05;99838.56;5073415;28;20287;-63
2024/03/04 01:50:24;;;;;;;12.93;9.27;;;;;;;5.09;70.05;99836.88;5070812;28;20201;-62
2024/03/04 01:52:53;;;;;;;15.50;10.70;;;;;;;5.06;70.03;99829.19;5069300;28;20226;-63
2024/03/04 01:55:24;;;;;;;20.13;9.90;;;;;;;5.06;70.38;99835.13;5067505;28;20611;-63
2024/03/04 01:57:53;;;;;;;14.90;9.27;;;;;;;5.07;70.49;99828.31;5070797;28;20208;-63
2024/03/04 02:00:23;;;;;;;16.30;10.30;;;;;;;5.08;69.77;99837.69;5071482;28;20197;-62
2024/03/04 02:02:53;;;;;;;12.93;9.30;;;;;;;5.06;70.20;99844.50;5079770;28;20208;-68
2024/03/04 02:05:22;;;;;;;17.60;9.87;;;;;;;5.02;70.11;99822.34;5061609;28;20225;-62
2024/03/04 02:07:51;;;;;;;17.67;10.20;;;;;;;5.06;70.42;99834.28;5052931;28;20209;-62
2024/03/04 02:10:19;;;;;;;18.17;9.80;;;;;;;5.07;70.45;99838.53;5064696;28;20205;-63
2024/03/04 02:12:49;;;;;;;15.33;9.73;;;;;;;5.08;70.61;99840.25;5067469;28;20244;-63
2024/03/04 02:15:17;;;;;;;15.83;9.80;;;;;;;5.09;70.61;99832.59;5069610;28;20214;-62
2024/03/04 02:17:45;;;;;;;13.90;9.43;;;;;;;5.09;69.86;99835.16;5060539;28;20278;-63
2024/03/04 02:20:16;;;;;;;18.13;9.73;;;;;;;5.06;70.29;99842.78;5072827;28;20236;-62
2024/03/04 02:22:46;;;;;;;13.37;9.27;;;;;;;5.06;70.73;99844.50;5072166;28;20207;-63
2024/03/04 02:25:14;;;;;;;14.03;8.97;;;;;;;5.07;70.22;99847.06;5072830;28;20639;-63
2024/03/04 02:27:43;;;;;;;16.27;9.23;;;;;;;5.09;70.68;99847.06;5071264;28;20201;-62
2024/03/04 02:30:12;;;;;;;16.17;10.30;;;;;;;5.11;70.69;99842.81;5070813;28;20274;-62
2024/03/04 02:32:41;;;;;;;19.43;9.93;;;;;;;5.13;70.96;99846.25;5071341;28;20500;-63
2024/03/04 02:35:09;;;;;;;15.57;9.90;;;;;;;5.13;70.51;99848.81;5064791;28;20773;-64
2024/03/04 02:37:38;;;;;;;16.10;9.70;;;;;;;5.13;70.53;99845.41;5071406;28;20205;-61
2024/03/04 02:40:09;;;;;;;14.60;9.43;;;;;;;5.12;70.65;99853.88;5071944;28;20212;-63
2024/03/04 02:42:38;;;;;;;15.10;9.70;;;;;;;5.11;70.75;99845.38;5071581;28;20214;-63
2024/03/04 02:45:07;;;;;;;16.40;9.17;;;;;;;5.11;70.88;99842.81;5071197;28;20193;-65
2024/03/04 02:47:35;;;;;;;15.67;10.00;;;;;;;5.16;70.44;99846.28;5071680;28;20201;-63
2024/03/04 02:50:03;;;;;;;14.10;9.40;;;;;;;5.16;70.72;99846.28;5071495;28;20197;-61
2024/03/04 02:52:31;;;;;;;17.77;9.60;;;;;;;5.14;70.88;99842.84;5068913;28;20300;-62
2024/03/04 02:54:59;;;;;;;16.53;10.40;;;;;;;5.16;70.86;99842.88;5058711;28;20210;-64
2024/03/04 02:57:29;;;;;;;14.73;9.07;;;;;;;5.16;70.89;99836.06;5067088;28;20224;-62
2024/03/04 02:59:57;;;;;;;16.17;9.93;;;;;;;5.15;70.87;99839.44;5071430;28;20812;-62
2024/03/04 03:02:25;;;;;;;17.90;10.63;;;;;;;5.18;70.84;99841.16;5070871;28;20662;-63
2024/03/04 03:04:53;;;;;;;14.33;9.40;;;;;;;5.16;71.37;99842.88;5066585;28;20722;-63
2024/03/04 03:07:21;;;;;;;14.53;9.83;;;;;;;5.09;72.08;99835.16;5071823;28;20286;-63
2024/03/04 03:09:49;;;;;;;17.30;10.10;;;;;;;5.03;72.48;99840.22;5070798;28;20255;-63
2024/03/04 03:12:17;;;;;;;18.77;9.90;;;;;;;5.01;72.70;99838.50;5068753;28;20567;-62
2024/03/04 03:14:46;;;;;;;16.80;9.60;;;;;;;4.98;73.08;99835.94;5065539;28;20256;-63
2024/03/04 03:17:14;;;;;;;15.80;9.70;;;;;;;4.94;73.38;99835.06;5069482;28;20193;-62
2024/03/04 03:19:43;;;;;;;20.93;10.47;;;;;;;4.89;73.87;99833.28;5057212;28;20216;-61
2024/03/04 03:22:11;;;;;;;15.70;10.80;;;;;;;4.85;74.44;99843.47;5066291;28;20292;-63
2024/03/04 03:24:41;;;;;;;15.93;10.07;;;;;;;4.82;74.10;99847.69;5069004;28;20271;-64
2024/03/04 03:27:11;;;;;;;16.40;9.57;;;;;;;4.80;74.97;99841.75;5070227;28;20201;-63
2024/03/04 03:29:39;;;;;;;12.50;9.20;;;;;;;4.78;74.71;99834.03;5069189;28;20562;-64
2024/03/04 03:32:08;;;;;;;14.33;9.87;;;;;;;4.81;74.40;99839.19;5060031;28;20206;-63
2024/03/04 03:34:36;;;;;;;13.80;9.83;;;;;;;4.81;73.90;99836.63;5069324;28;20224;-63
2024/03/04 03:37:05;;;;;;;15.77;8.90;;;;;;;4.82;74.02;99827.28;5069685;28;20201;-62
2024/03/04 03:39:33;;;;;;;18.10;10.63;;;;;;;4.80;74.08;99836.63;5067081;28;20201;-63
2024/03/04 03:42:04;;;;;;;14.00;8.80;;;;;;;4.78;73.46;99828.94;5068787;28;20201;-63
2024/03/04 03:44:32;;;;;;;15.07;8.63;;;;;;;4.76;73.47;99834.91;5075247;28;20205;-62
2024/03/04 03:47:01;;;;;;;17.53;10.00;;;;;;;4.73;73.85;99829.75;5065329;28;20204;-62
2024/03/04 03:49:31;;;;;;;18.73;9.60;;;;;;;4.71;73.76;99827.19;5064474;28;20202;-62
2024/03/04 03:51:59;;;;;;;19.77;10.20;;;;;;;4.73;73.73;99838.28;5058294;28;20206;-63
2024/03/04 03:54:27;;;;;;;19.50;10.70;;;;;;;4.74;74.16;99832.31;5065541;28;20690;-62
2024/03/04 03:56:55;;;;;;;16.73;10.20;;;;;;;4.72;73.82;99834.03;5069623;28;20611;-62
2024/03/04 03:59:23;;;;;;;16.17;10.20;;;;;;;4.74;73.69;99844.22;5069917;28;20293;-62
2024/03/04 04:01:52;;;;;;;16.50;9.50;;;;;;;4.73;74.13;99847.63;5067327;28;20208;-66
2024/03/04 04:04:20;;;;;;;13.80;9.70;;;;;;;4.72;73.79;99848.47;5071090;28;20279;-66
2024/03/04 04:06:49;;;;;;;19.87;10.70;;;;;;;4.70;74.05;99848.44;5071168;28;20197;-63
2024/03/04 04:09:17;;;;;;;16.40;10.03;;;;;;;4.67;74.02;99840.75;5063943;28;20570;-63
2024/03/04 04:11:45;;;;;;;14.90;9.77;;;;;;;4.68;74.20;99847.59;5070279;28;20604;-61
2024/03/04 04:14:13;;;;;;;15.17;10.40;;;;;;;4.69;74.02;99853.56;5026217;28;1249895;-62
2024/03/04 04:16:41;;;;;;;18.70;11.13;;;;;;;4.71;74.04;99868.00;5070745;28;20209;-61
2024/03/04 04:19:10;;;;;;;15.43;10.93;;;;;;;4.73;74.27;99861.25;5070724;28;20219;-64
2024/03/04 04:21:38;;;;;;;14.57;9.63;;;;;;;4.77;74.58;99857.88;5061420;28;20613;-65
2024/03/04 04:24:07;;;;;;;16.57;10.60;;;;;;;4.82;73.79;99861.34;5067519;28;20580;-65
2024/03/04 04:26:35;;;;;;;15.33;10.33;;;;;;;4.83;74.05;99857.94;5068325;28;20211;-62
2024/03/04 04:29:03;;;;;;;14.60;10.67;;;;;;;4.85;73.96;99861.34;5066901;28;20628;-65
2024/03/04 04:31:31;;;;;;;16.53;10.37;;;;;;;4.84;74.26;99864.75;5070375;28;20212;-68
2024/03/04 04:33:59;;;;;;;15.90;9.50;;;;;;;4.85;74.01;99858.78;5070188;28;20225;-61
2024/03/04 04:36:28;;;;;;;14.77;9.97;;;;;;;4.87;74.06;99857.97;5071231;28;20210;-64
2024/03/04 04:38:56;;;;;;;15.23;10.57;;;;;;;4.88;73.95;99857.97;5066734;28;20558;-63
2024/03/04 04:41:25;;;;;;;19.10;10.93;;;;;;;4.92;74.20;99866.50;5070407;28;20793;-63
2024/03/04 04:43:54;;;;;;;18.00;10.97;;;;;;;4.94;74.00;99864.84;5065170;28;20202;-63
2024/03/04 04:46:22;;;;;;;14.23;10.43;;;;;;;4.94;74.23;99862.28;5069841;28;20228;-63
2024/03/04 04:48:49;;;;;;;17.23;10.73;;;;;;;4.98;73.99;99872.53;5069273;28;20289;-65
2024/03/04 04:51:17;;;;;;;19.57;11.13;;;;;;;4.99;74.16;99874.22;5069800;28;20194;-64
2024/03/04 04:53:45;;;;;;;15.90;10.80;;;;;;;4.97;73.92;99869.94;5072619;28;20207;-62
2024/03/04 04:56:17;;;;;;;17.97;10.27;;;;;;;4.94;74.20;99875.06;5073401;28;20206;-63
2024/03/04 04:58:46;;;;;;;17.30;11.33;;;;;;;4.93;74.45;99874.16;5065883;28;20224;-64
2024/03/04 05:01:24;;;;;;;17.87;11.13;;;;;;;4.92;74.39;99881.81;5068089;28;20208;-63
2024/03/04 05:03:53;;;;;;;20.03;10.70;;;;;;;4.89;74.73;99881.78;5069123;28;20212;-63
2024/03/04 05:06:41;;;;;;;16.83;11.07;;;;;;;4.89;75.04;99876.69;5073644;28;20205;-63
2024/03/04 05:09:09;;;;;;;19.07;11.17;;;;;;;4.88;75.32;99875.84;5073634;28;20205;-63
2024/03/04 05:11:37;;;;;;;18.20;11.07;;;;;;;4.90;75.22;99891.16;5073911;28;20205;-63
2024/03/04 05:14:09;;;;;;;16.70;10.53;;;;;;;4.88;75.10;99872.44;5072817;28;20318;-64
2024/03/04 05:16:37;;;;;;;20.77;12.13;;;;;;;4.89;75.57;99876.69;5068878;28;20205;-63
2024/03/04 05:19:05;;;;;;;20.87;11.90;;;;;;;4.93;75.46;99874.16;5071980;28;20205;-65
2024/03/04 05:21:33;;;;;;;16.10;10.97;;;;;;;5.00;75.32;99880.19;5068902;28;20197;-63
2024/03/04 05:24:01;;;;;;;15.97;11.40;;;;;;;5.04;75.10;99882.81;5072715;28;20205;-63
2024/03/04 05:26:29;;;;;;;20.50;10.93;;;;;;;5.06;74.83;99877.69;5073033;28;20212;-66
2024/03/04 05:28:56;;;;;;;20.10;11.33;;;;;;;5.06;75.13;99881.09;5073511;28;20223;-65
2024/03/04 05:31:26;;;;;;;17.63;10.70;;;;;;;5.06;75.43;99883.66;5067353;28;20682;-63
2024/03/04 05:33:54;;;;;;;17.50;11.43;;;;;;;5.06;75.46;99880.25;5075194;28;20208;-62
2024/03/04 05:36:21;;;;;;;15.87;10.50;;;;;;;5.06;75.22;99880.25;5074205;28;20224;-62
2024/03/04 05:38:49;;;;;;;19.33;11.73;;;;;;;5.07;75.38;99876.84;5070813;28;20213;-63
2024/03/04 05:41:17;;;;;;;17.93;11.20;;;;;;;5.06;75.36;99876.00;5068419;28;20288;-64
2024/03/04 05:43:45;;;;;;;17.40;11.20;;;;;;;5.08;75.61;99876.00;5073182;28;20205;-63
2024/03/04 05:46:13;;;;;;;18.13;11.17;;;;;;;5.08;75.72;99888.75;5069987;28;20205;-65
2024/03/04 05:48:46;;;;;;;15.93;10.93;;;;;;;5.06;75.57;99886.19;5067559;28;20640;-62
2024/03/04 05:51:14;;;;;;;20.03;10.80;;;;;;;5.05;75.45;99888.75;5069055;28;20196;-63
2024/03/04 05:53:42;;;;;;;17.70;11.17;;;;;;;5.02;76.11;99893.84;5066497;28;20650;-62
2024/03/04 05:56:10;;;;;;;19.07;11.47;;;;;;;5.03;76.45;99891.28;5073501;28;20728;-65
2024/03/04 05:58:39;;;;;;;14.97;10.77;;;;;;;5.09;76.48;99898.16;5072806;28;20197;-63
2024/03/04 06:01:07;;;;;;;15.93;11.93;;;;;;;5.12;76.13;99894.75;5071474;28;20201;-64
2024/03/04 06:03:35;;;;;;;19.33;11.80;;;;;;;5.08;76.26;99894.75;5063358;28;20591;-64
2024/03/04 06:06:05;;;;;;;17.77;11.33;;;;;;;5.06;76.42;99888.75;5077153;28;20562;-62
2024/03/04 06:08:36;;;;;;;20.90;11.73;;;;;;;5.09;76.70;99900.72;5067170;28;20209;-65
2024/03/04 06:11:04;;;;;;;18.23;11.10;;;;;;;5.08;76.60;99910.06;5079310;28;20255;-62
2024/03/04 06:13:32;;;;;;;20.83;11.93;;;;;;;5.05;76.59;99904.94;5070951;28;20728;-64
2024/03/04 06:16:00;;;;;;;18.57;12.00;;;;;;;5.00;77.01;99910.81;5072330;28;20296;-63
2024/03/04 06:18:28;;;;;;;18.70;12.13;;;;;;;5.00;76.97;99909.13;5076634;28;20208;-65
2024/03/04 06:20:57;;;;;;;16.80;11.50;;;;;;;5.05;78.09;99909.19;5065295;28;20213;-64
2024/03/04 06:23:26;;;;;;;19.83;11.53;;;;;;;5.11;77.62;99913.47;5069106;28;20584;-66
2024/03/04 06:25:54;;;;;;;20.93;10.90;;;;;;;5.14;77.04;99914.34;5073964;28;20193;-63
2024/03/04 06:28:22;;;;;;;19.80;12.10;;;;;;;5.15;76.40;99917.75;5073942;28;20278;-62
2024/03/04 06:30:51;;;;;;;19.70;12.10;;;;;;;5.18;76.93;99920.34;5066563;28;20245;-67
2024/03/04 06:33:19;;;;;;;17.97;11.37;;;;;;;5.16;77.11;99915.25;5067689;28;20285;-62
2024/03/04 06:35:47;;;;;;;16.97;11.93;;;;;;;5.20;76.96;99914.41;5065690;28;20236;-62
2024/03/04 06:38:15;;;;;;;22.47;11.83;;;;;;;5.21;76.65;99915.28;5066967;28;20659;-62
2024/03/04 06:40:45;;;;;;;19.47;12.10;;;;;;;5.22;77.19;99912.72;5067615;28;20323;-63
2024/03/04 06:43:13;;;;;;;16.10;10.87;;;;;;;5.23;76.62;99906.78;5069084;28;20201;-63
2024/03/04 06:45:41;;;;;;;19.70;11.93;;;;;;;5.25;75.78;99910.19;5071244;28;20197;-63
2024/03/04 06:48:09;;;;;;;18.53;11.40;;;;;;;5.22;75.91;99914.41;5071345;28;20209;-63
2024/03/04 06:50:37;;;;;;;18.27;11.13;;;;;;;5.18;76.54;99910.97;5061934;28;20210;-63
2024/03/04 06:53:08;;;;;;;21.03;12.37;;;;;;;5.18;76.52;99907.56;5067082;28;20205;-62
2024/03/04 06:55:36;;;;;;;15.50;10.93;;;;;;;5.17;77.03;99904.16;5069659;28;20217;-65
2024/03/04 06:58:06;;;;;;;18.57;11.57;;;;;;;5.19;76.51;99911.84;5070533;28;20197;-61
2024/03/04 07:00:34;;;;;;;19.13;12.63;;;;;;;5.19;76.44;99912.72;5069851;28;20659;-62
2024/03/04 07:03:04;;;;;;;19.23;11.73;;;;;;;5.16;76.96;99912.69;5068450;28;20255;-61
2024/03/04 07:05:32;;;;;;;17.43;11.10;;;;;;;5.15;77.45;99905.84;5070303;28;20323;-62
2024/03/04 07:08:00;;;;;;;21.57;11.70;;;;;;;5.13;77.37;99902.44;5070460;28;20205;-62
2024/03/04 07:10:28;;;;;;;20.37;13.40;;;;;;;5.15;77.54;99900.72;5071165;28;20291;-61
2024/03/04 07:12:56;;;;;;;17.70;10.87;;;;;;;5.14;77.09;99896.47;5066084;28;20322;-62
2024/03/04 07:15:26;;;;;;;19.87;11.73;;;;;;;5.22;77.05;99899.94;5068499;28;20780;-63
2024/03/04 07:17:55;;;;;;;18.37;11.87;;;;;;;5.31;77.17;99901.72;5065749;28;23546;-63
2024/03/04 07:20:23;;;;;;;16.47;10.67;;;;;;;5.42;76.50;99901.81;5069442;28;20209;-62
2024/03/04 07:22:51;;;;;;;20.83;13.40;;;;;;;5.52;75.72;99906.13;5065148;28;20540;-62
2024/03/04 07:25:19;;;;;;;16.10;12.33;;;;;;;5.55;75.35;99904.44;5066139;28;20200;-66
2024/03/04 07:27:47;;;;;;;22.20;13.07;;;;;;;5.50;75.45;99907.81;5083874;28;20204;-61
2024/03/04 07:30:16;;;;;;;20.57;13.10;;;;;;;5.44;75.83;99908.63;5071293;28;20217;-63
2024/03/04 07:32:45;;;;;;;22.80;12.30;;;;;;;5.48;75.89;99904.38;5068086;28;20201;-63
2024/03/04 07:35:13;;;;;;;19.80;12.00;;;;;;;5.51;76.27;99904.41;5069079;28;20291;-65
2024/03/04 07:37:41;;;;;;;19.60;12.53;;;;;;;5.57;76.27;99912.13;5067969;28;20205;-64
2024/03/04 07:40:11;;;;;;;17.63;12.83;;;;;;;5.62;75.36;99913.00;5065509;28;20304;-63
2024/03/04 07:42:39;;;;;;;19.40;11.73;;;;;;;5.68;75.71;99917.31;5067670;28;20233;-64
2024/03/04 07:45:10;;;;;;;22.73;12.43;;;;;;;5.65;75.25;99918.13;5069468;28;20229;-61
2024/03/04 07:47:38;;;;;;;23.87;12.70;;;;;;;5.63;75.39;99912.16;5070020;28;20268;-64
2024/03/04 07:50:08;;;;;;;20.70;13.63;;;;;;;5.67;75.22;99921.56;5061173;28;20335;-63
2024/03/04 07:52:37;;;;;;;16.87;12.33;;;;;;;5.69;75.43;99916.47;5071157;28;20209;-60
2024/03/04 07:55:07;;;;;;;18.10;12.03;;;;;;;5.66;75.04;99917.28;5064270;28;20730;-63
2024/03/04 07:57:35;;;;;;;20.73;12.57;;;;;;;5.69;75.13;99916.47;5070709;28;20213;-63
2024/03/04 08:00:04;;;;;;;23.63;13.37;;;;;;;5.73;75.15;99928.41;5068798;28;20201;-62
2024/03/04 08:02:37;;;;;;;18.03;11.80;;;;;;;5.73;75.40;99926.69;5068386;28;20292;-64
2024/03/04 08:05:06;;;;;;;19.67;13.47;;;;;;;5.75;74.84;99930.13;5069205;28;20208;-65
2024/03/04 08:07:35;;;;;;;17.43;12.17;;;;;;;5.70;75.08;99931.78;5060513;28;20647;-62
2024/03/04 08:10:06;;;;;;;20.47;12.83;;;;;;;5.68;75.10;99932.66;5073497;28;20208;-63
2024/03/04 08:12:34;;;;;;;20.17;13.37;;;;;;;5.71;74.84;99932.66;5068030;28;20247;-64
2024/03/04 08:15:03;;;;;;;18.57;13.07;;;;;;;5.72;74.74;99927.56;5070943;28;20295;-67
2024/03/04 08:17:32;;;;;;;21.93;13.17;;;;;;;5.71;74.96;99930.97;5069545;28;20229;-63
2024/03/04 08:20:01;;;;;;;23.87;13.20;;;;;;;5.66;75.31;99947.97;5069092;28;20198;-62
2024/03/04 08:22:29;;;;;;;20.57;13.73;;;;;;;5.64;75.36;99944.56;5070881;28;20254;-63
2024/03/04 08:24:59;;;;;;;22.63;14.00;;;;;;;5.67;75.66;99942.03;5069248;28;20209;-64
2024/03/04 08:27:32;;;;;;;19.50;13.50;;;;;;;5.67;75.33;99944.56;5064280;28;20665;-63
2024/03/04 08:30:00;;;;;;;21.43;13.57;;;;;;;5.63;75.78;99944.53;5071895;28;20205;-63
2024/03/04 08:32:28;;;;;;;21.50;13.60;;;;;;;5.60;75.70;99940.28;5072406;28;20286;-63
2024/03/04 08:34:56;;;;;;;22.43;13.47;;;;;;;5.62;76.35;99936.00;5074534;28;20204;-65
2024/03/04 08:37:24;;;;;;;21.17;14.43;;;;;;;5.68;75.78;99946.28;5073190;28;21029;-64
2024/03/04 08:39:58;;;;;;;22.73;14.00;;;;;;;5.71;75.58;99942.91;5072428;28;20208;-65
2024/03/04 08:42:32;;;;;;;20.37;14.00;;;;;;;5.70;76.11;99936.91;5067376;28;20288;-65
2024/03/04 08:45:00;;;;;;;22.83;13.30;;;;;;;5.77;75.38;99946.31;5073379;28;20196;-64
2024/03/04 08:47:28;;;;;;;23.07;13.97;;;;;;;5.77;75.43;99948.88;5069333;28;20673;-62
2024/03/04 08:49:56;;;;;;;22.17;14.47;;;;;;;5.78;75.62;99949.72;5067076;28;20205;-65
2024/03/04 08:52:24;;;;;;;20.87;13.87;;;;;;;5.80;75.34;99954.03;5073512;28;20213;-64
2024/03/04 08:54:52;;;;;;;22.33;13.60;;;;;;;5.78;76.06;99953.16;5074446;28;20291;-65
2024/03/04 08:57:20;;;;;;;24.63;14.80;;;;;;;5.80;75.76;99953.16;5073453;28;20223;-64
2024/03/04 08:59:50;;;;;;;20.30;13.73;;;;;;;5.84;75.98;99943.81;5071568;28;20259;-64
2024/03/04 09:02:18;;;;;;;20.57;13.60;;;;;;;5.89;75.96;99948.13;5071985;28;20292;-64
2024/03/04 09:04:47;;;;;;;23.17;14.70;;;;;;;5.91;75.55;99946.41;5073251;28;20209;-64
2024/03/04 09:07:16;;;;;;;21.80;14.97;;;;;;;5.92;75.73;99947.25;5073914;28;20289;-63
2024/03/04 09:09:50;;;;;;;23.40;14.87;;;;;;;5.95;75.76;99947.31;5074968;28;20212;-64
2024/03/04 09:12:19;;;;;;;20.20;14.53;;;;;;;5.97;75.49;99943.94;5072321;28;20221;-62
2024/03/04 09:14:47;;;;;;;20.20;14.57;;;;;;;5.98;75.95;99939.66;5073112;28;20213;-63
2024/03/04 09:17:17;;;;;;;21.23;13.30;;;;;;;5.99;76.19;99934.56;5071433;28;20228;-67
2024/03/04 09:19:45;;;;;;;22.13;15.30;;;;;;;5.98;75.70;99937.13;5072364;28;20221;-64
2024/03/04 09:22:13;;;;;;;21.30;15.07;;;;;;;5.95;75.54;99940.50;5072001;28;20210;-64
2024/03/04 09:24:42;;;;;;;23.37;15.60;;;;;;;5.94;76.87;99935.38;5072641;28;20205;-64
2024/03/04 09:27:10;;;;;;;22.67;13.90;;;;;;;6.00;77.47;99941.41;5071661;28;20213;-63
2024/03/04 09:29:39;;;;;;;22.17;14.27;;;;;;;6.08;77.30;99945.69;5072293;28;20209;-65
2024/03/04 09:32:07;;;;;;;22.43;15.03;;;;;;;6.17;76.83;99938.91;5072096;28;20259;-64
2024/03/04 09:34:37;;;;;;;22.03;14.73;;;;;;;6.22;75.88;99937.25;5072497;28;20201;-63
2024/03/04 09:37:05;;;;;;;23.10;14.37;;;;;;;6.25;75.85;99942.34;5073437;28;20209;-63
2024/03/04 09:39:33;;;;;;;23.27;14.50;;;;;;;6.31;75.68;99935.56;5071567;28;20205;-62
2024/03/04 09:42:01;;;;;;;23.50;14.70;;;;;;;6.37;76.14;99940.69;5072916;28;20205;-63
2024/03/04 09:44:30;;;;;;;22.60;15.60;;;;;;;6.37;75.92;99945.81;5070710;28;20214;-63
2024/03/04 09:46:58;;;;;;;22.40;14.40;;;;;;;6.29;75.39;99938.94;5069293;28;20202;-63
2024/03/04 09:49:29;;;;;;;25.10;15.40;;;;;;;6.24;76.38;99943.19;5071513;28;20205;-65
2024/03/04 09:52:00;;;;;;;24.60;14.50;;;;;;;6.29;76.51;99943.22;5067920;28;20260;-64
2024/03/04 09:54:30;;;;;;;22.00;15.07;;;;;;;6.38;75.86;99947.53;5073091;28;20205;-62
2024/03/04 09:56:59;;;;;;;22.70;14.80;;;;;;;6.49;76.28;99949.28;5072866;28;20302;-62
2024/03/04 09:59:27;;;;;;;24.27;14.83;;;;;;;6.62;75.35;99952.72;5065910;28;20233;-63
2024/03/04 10:01:57;;;;;;;20.97;14.20;;;;;;;6.64;75.13;99955.28;5069315;28;20228;-61
2024/03/04 10:04:26;;;;;;;22.70;14.57;;;;;;;6.65;75.14;99952.72;5071171;28;20662;-66
2024/03/04 10:06:54;;;;;;;24.30;14.77;;;;;;;6.78;76.49;99953.63;5071934;28;20190;-63
2024/03/04 10:09:27;;;;;;;26.30;16.00;;;;;;;6.85;74.40;99940.00;5070846;28;20236;-65
2024/03/04 10:11:55;;;;;;;24.77;15.83;;;;;;;6.96;74.81;99932.31;5072241;28;20983;-64
2024/03/04 10:14:23;;;;;;;27.50;15.40;;;;;;;7.05;74.22;99937.44;5072078;28;20705;-66
2024/03/04 10:16:51;;;;;;;24.27;15.40;;;;;;;7.10;73.71;99942.56;5071929;28;20633;-63
2024/03/04 10:19:20;;;;;;;25.00;15.87;;;;;;;6.98;73.42;99951.94;5071958;28;20209;-64
2024/03/04 10:21:49;;;;;;;22.17;13.83;;;;;;;6.95;73.04;99948.53;5071615;28;20233;-64
2024/03/04 10:24:17;;;;;;;26.13;16.13;;;;;;;6.86;72.80;99954.50;5070913;28;20220;-65
2024/03/04 10:26:47;;;;;;;26.03;15.07;;;;;;;6.82;73.31;99962.19;5068272;28;20604;-62
2024/03/04 10:29:18;;;;;;;26.83;15.30;;;;;;;6.77;73.20;99973.25;5068457;28;20570;-64
2024/03/04 10:31:50;;;;;;;25.47;15.17;;;;;;;6.72;74.07;99974.94;5069934;28;20201;-64
2024/03/04 10:34:19;;;;;;;20.20;13.90;;;;;;;6.75;74.53;99969.84;5070875;28;20284;-64
2024/03/04 10:36:48;;;;;;;23.27;15.73;;;;;;;6.72;73.49;99974.94;5071967;28;20206;-63
2024/03/04 10:39:17;;;;;;;28.73;16.17;;;;;;;6.62;73.97;99973.19;5072037;28;20570;-63
2024/03/04 10:41:48;;;;;;;24.60;15.37;;;;;;;6.59;73.81;99975.78;5071174;28;20200;-66
2024/03/04 10:44:25;;;;;;;25.37;15.17;;;;;;;6.56;74.21;99973.19;5071599;28;20313;-65
2024/03/04 10:46:55;;;;;;;23.77;16.07;;;;;;;6.60;74.29;99969.78;5070765;28;20614;-63
2024/03/04 10:49:29;;;;;;;25.43;14.63;;;;;;;6.64;74.35;99965.53;5071775;28;20212;-65
2024/03/04 10:51:58;;;;;;;29.67;16.60;;;;;;;6.69;74.21;99972.38;5070460;28;21695;-66
2024/03/04 10:54:40;;;;;;;23.67;16.30;;;;;;;6.70;74.59;99961.28;5070200;28;20571;-64
2024/03/04 10:57:26;;;;;;;24.87;13.90;;;;;;;6.70;74.08;99966.41;5063617;28;20255;-64
2024/03/04 10:59:56;;;;;;;25.60;16.13;;;;;;;6.64;73.77;99968.09;5064083;28;20224;-63
2024/03/04 11:02:42;;;;;;;22.93;14.80;;;;;;;6.61;74.50;99971.50;5070377;28;20641;-69
2024/03/04 11:05:11;;;;;;;24.97;15.63;;;;;;;6.55;75.06;99961.22;5065040;28;20624;-62
2024/03/04 11:07:43;;;;;;;29.67;16.23;;;;;;;6.57;74.96;99959.53;5070075;28;20567;-60
2024/03/04 11:10:21;;;;;;;23.07;14.97;;;;;;;6.60;74.22;99959.56;5066375;28;20229;-63
2024/03/04 11:13:05;;;;;;;24.97;14.60;;;;;;;6.69;74.97;99959.56;5070216;28;20228;-63
2024/03/04 11:15:40;;;;;;;24.13;15.17;;;;;;;6.73;74.25;99968.97;5071030;28;20666;-65
2024/03/04 11:18:25;;;;;;;24.03;15.87;;;;;;;6.78;73.80;99963.88;5065029;28;20682;-65
2024/03/04 11:20:53;;;;;;;23.30;15.47;;;;;;;6.77;73.93;99957.91;5070993;28;20205;-63
2024/03/04 11:23:22;;;;;;;21.97;15.33;;;;;;;6.78;73.55;99961.31;5064656;28;20683;-65
2024/03/04 11:25:51;;;;;;;23.27;15.30;;;;;;;6.80;73.56;99961.31;5067864;28;20651;-63
2024/03/04 11:28:21;;;;;;;22.93;16.23;;;;;;;6.83;73.82;99951.06;5071078;28;20263;-67
2024/03/04 11:30:50;;;;;;;27.93;17.20;;;;;;;6.89;73.34;99957.06;5070202;28;20225;-66
2024/03/04 11:33:40;;;;;;;25.00;15.73;;;;;;;6.91;74.09;99967.31;5070700;28;20241;-65
2024/03/04 11:36:09;;;;;;;25.03;16.20;;;;;;;6.96;73.51;99963.91;5070610;28;20274;-66